sensor_id;sensor_type;location;lat;lon;timestamp;temperature;humidity
15357;DHT22;7778;48.792;9.260;2023-09-19T00:00:56;18.10;99.90
15357;DHT22;7778;48.792;9.260;2023-09-19T00:03:43;18.20;99.90
15357;DHT22;7778;48.792;9.260;2023-09-19T00:06:29;18.00;99.90
15357;DHT22;7778;48.792;9.260;2023-09-19T00:09:15;18.00;99.90
15357;DHT22;7778;48.792;9.260;2023-09-19T00:12:00;17.90;99.90
15357;DHT22;7778;48.792;9.260;2023-09-19T00:14:47;18.00;99.90
15357;DHT22;7778;48.792;9.260;2023-09-19T00:17:32;17.90;99.90
15357;DHT22;7778;48.792;9.260;2023-09-19T00:20:20;17.90;99.90
15357;DHT22;7778;48.792;9.260;2023-09-19T00:23:07;18.00;99.90
15357;DHT22;7778;48.792;9.260;2023-09-19T00:25:53;17.90;99.90
15357;DHT22;7778;48.792;9.260;2023-09-19T00:28:41;17.90;99.90
15357;DHT22;7778;48.792;9.260;2023-09-19T00:31:27;17.70;99.90
15357;DHT22;7778;48.792;9.260;2023-09-19T00:34:14;17.60;99.90
15357;DHT22;7778;48.792;9.260;2023-09-19T00:37:03;17.60;99.90
15357;DHT22;7778;48.792;9.260;2023-09-19T00:39:48;17.60;99.90
15357;DHT22;7778;48.792;9.260;2023-09-19T00:42:34;17.50;99.90
15357;DHT22;7778;48.792;9.260;2023-09-19T00:45:21;17.40;99.90
15357;DHT22;7778;48.792;9.260;2023-09-19T00:48:07;17.40;99.90
15357;DHT22;7778;48.792;9.260;2023-09-19T00:50:53;17.40;99.90
15357;DHT22;7778;48.792;9.260;2023-09-19T00:53:41;17.40;99.90
15357;DHT22;7778;48.792;9.260;2023-09-19T00:56:30;17.50;99.90
15357;DHT22;7778;48.792;9.260;2023-09-19T00:59:16;17.50;99.90
15357;DHT22;7778;48.792;9.260;2023-09-19T01:02:02;17.40;99.90
15357;DHT22;7778;48.792;9.260;2023-09-19T01:04:48;17.40;99.90
15357;DHT22;7778;48.792;9.260;2023-09-19T01:07:34;17.50;99.90
15357;DHT22;7778;48.792;9.260;2023-09-19T01:10:22;17.50;99.90
15357;DHT22;7778;48.792;9.260;2023-09-19T01:13:16;17.50;99.90
15357;DHT22;7778;48.792;9.260;2023-09-19T01:16:13;17.40;99.90
15357;DHT22;7778;48.792;9.260;2023-09-19T01:19:26;17.40;99.90
15357;DHT22;7778;48.792;9.260;2023-09-19T01:22:31;17.60;99.90
15357;DHT22;7778;48.792;9.260;2023-09-19T01:26:01;17.70;99.90
15357;DHT22;7778;48.792;9.260;2023-09-19T01:28:53;17.60;99.90
15357;DHT22;7778;48.792;9.260;2023-09-19T01:31:42;17.50;99.90
15357;DHT22;7778;48.792;9.260;2023-09-19T01:34:43;17.60;99.90
15357;DHT22;7778;48.792;9.260;2023-09-19T01:37:31;17.70;99.90
15357;DHT22;7778;48.792;9.260;2023-09-19T01:40:18;17.60;99.90
15357;DHT22;7778;48.792;9.260;2023-09-19T01:43:10;17.60;99.90
15357;DHT22;7778;48.792;9.260;2023-09-19T01:46:07;17.70;99.90
15357;DHT22;7778;48.792;9.260;2023-09-19T01:49:04;17.80;99.90
15357;DHT22;7778;48.792;9.260;2023-09-19T01:52:10;17.80;99.90
15357;DHT22;7778;48.792;9.260;2023-09-19T01:55:05;17.90;99.90
15357;DHT22;7778;48.792;9.260;2023-09-19T01:57:58;17.70;99.90
15357;DHT22;7778;48.792;9.260;2023-09-19T02:00:49;17.70;99.90
15357;DHT22;7778;48.792;9.260;2023-09-19T02:03:37;17.80;99.90
15357;DHT22;7778;48.792;9.260;2023-09-19T02:06:25;17.80;99.90
15357;DHT22;7778;48.792;9.260;2023-09-19T02:09:11;17.80;99.90
15357;DHT22;7778;48.792;9.260;2023-09-19T02:11:56;17.70;99.90
15357;DHT22;7778;48.792;9.260;2023-09-19T02:14:43;17.80;99.90
15357;DHT22;7778;48.792;9.260;2023-09-19T02:17:28;17.80;99.90
15357;DHT22;7778;48.792;9.260;2023-09-19T02:20:15;17.70;99.90
15357;DHT22;7778;48.792;9.260;2023-09-19T02:23:03;17.70;99.90
15357;DHT22;7778;48.792;9.260;2023-09-19T02:25:52;17.60;99.90
15357;DHT22;7778;48.792;9.260;2023-09-19T02:28:38;17.60;99.90
15357;DHT22;7778;48.792;9.260;2023-09-19T02:31:24;17.60;99.90
15357;DHT22;7778;48.792;9.260;2023-09-19T02:34:10;17.70;99.90
15357;DHT22;7778;48.792;9.260;2023-09-19T02:36:55;17.60;99.90
15357;DHT22;7778;48.792;9.260;2023-09-19T02:39:42;17.60;99.90
15357;DHT22;7778;48.792;9.260;2023-09-19T02:42:28;17.50;99.90
15357;DHT22;7778;48.792;9.260;2023-09-19T02:45:15;17.50;99.90
15357;DHT22;7778;48.792;9.260;2023-09-19T02:48:02;17.50;99.90
15357;DHT22;7778;48.792;9.260;2023-09-19T02:50:49;17.40;99.90
15357;DHT22;7778;48.792;9.260;2023-09-19T02:53:35;17.50;99.90
15357;DHT22;7778;48.792;9.260;2023-09-19T02:56:23;17.40;99.90
15357;DHT22;7778;48.792;9.260;2023-09-19T02:59:09;17.40;99.90
15357;DHT22;7778;48.792;9.260;2023-09-19T03:01:55;17.30;99.90
15357;DHT22;7778;48.792;9.260;2023-09-19T03:04:40;17.30;99.90
15357;DHT22;7778;48.792;9.260;2023-09-19T03:07:26;17.30;99.90
15357;DHT22;7778;48.792;9.260;2023-09-19T03:10:12;17.30;99.90
15357;DHT22;7778;48.792;9.260;2023-09-19T03:13:00;17.40;99.90
15357;DHT22;7778;48.792;9.260;2023-09-19T03:15:47;17.40;99.90
15357;DHT22;7778;48.792;9.260;2023-09-19T03:18:34;17.70;99.90
15357;DHT22;7778;48.792;9.260;2023-09-19T03:21:20;17.60;99.90
15357;DHT22;7778;48.792;9.260;2023-09-19T03:24:06;17.70;99.90
15357;DHT22;7778;48.792;9.260;2023-09-19T03:26:52;17.60;99.90
15357;DHT22;7778;48.792;9.260;2023-09-19T03:29:39;17.60;99.90
15357;DHT22;7778;48.792;9.260;2023-09-19T03:32:25;17.70;99.90
15357;DHT22;7778;48.792;9.260;2023-09-19T03:35:11;17.60;99.90
15357;DHT22;7778;48.792;9.260;2023-09-19T03:37:58;17.60;99.90
15357;DHT22;7778;48.792;9.260;2023-09-19T03:40:44;17.60;99.90
15357;DHT22;7778;48.792;9.260;2023-09-19T03:43:29;17.50;99.90
15357;DHT22;7778;48.792;9.260;2023-09-19T03:46:18;17.50;99.90
15357;DHT22;7778;48.792;9.260;2023-09-19T03:49:06;17.50;99.90
15357;DHT22;7778;48.792;9.260;2023-09-19T03:51:52;17.40;99.90
15357;DHT22;7778;48.792;9.260;2023-09-19T03:54:38;17.50;99.90
15357;DHT22;7778;48.792;9.260;2023-09-19T03:57:25;17.60;99.90
15357;DHT22;7778;48.792;9.260;2023-09-19T04:00:12;17.50;99.90
15357;DHT22;7778;48.792;9.260;2023-09-19T04:03:00;17.50;99.90
15357;DHT22;7778;48.792;9.260;2023-09-19T04:05:50;17.50;99.90
15357;DHT22;7778;48.792;9.260;2023-09-19T04:08:35;17.50;99.90
15357;DHT22;7778;48.792;9.260;2023-09-19T04:11:21;17.60;99.90
15357;DHT22;7778;48.792;9.260;2023-09-19T04:14:06;17.50;99.90
15357;DHT22;7778;48.792;9.260;2023-09-19T04:16:52;17.50;99.90
15357;DHT22;7778;48.792;9.260;2023-09-19T04:19:39;17.60;99.90
15357;DHT22;7778;48.792;9.260;2023-09-19T04:22:25;17.90;99.90
15357;DHT22;7778;48.792;9.260;2023-09-19T04:25:11;17.90;99.90
15357;DHT22;7778;48.792;9.260;2023-09-19T04:27:56;17.90;99.90
15357;DHT22;7778;48.792;9.260;2023-09-19T04:30:42;17.80;99.90
15357;DHT22;7778;48.792;9.260;2023-09-19T04:33:28;17.70;99.90
15357;DHT22;7778;48.792;9.260;2023-09-19T04:36:15;17.40;99.90
15357;DHT22;7778;48.792;9.260;2023-09-19T04:39:01;17.20;99.90
15357;DHT22;7778;48.792;9.260;2023-09-19T04:41:49;17.30;99.90
15357;DHT22;7778;48.792;9.260;2023-09-19T04:44:34;17.30;99.90
15357;DHT22;7778;48.792;9.260;2023-09-19T04:47:22;17.30;99.90
15357;DHT22;7778;48.792;9.260;2023-09-19T04:50:09;17.40;99.90
15357;DHT22;7778;48.792;9.260;2023-09-19T04:52:59;17.50;99.90
15357;DHT22;7778;48.792;9.260;2023-09-19T04:55:49;17.60;99.90
15357;DHT22;7778;48.792;9.260;2023-09-19T04:58:36;17.70;99.90
15357;DHT22;7778;48.792;9.260;2023-09-19T05:01:22;17.50;99.90
15357;DHT22;7778;48.792;9.260;2023-09-19T05:04:07;17.60;99.90
15357;DHT22;7778;48.792;9.260;2023-09-19T05:06:53;17.40;99.90
15357;DHT22;7778;48.792;9.260;2023-09-19T05:09:40;17.50;99.90
15357;DHT22;7778;48.792;9.260;2023-09-19T05:12:26;17.50;99.90
15357;DHT22;7778;48.792;9.260;2023-09-19T05:15:13;17.50;99.90
15357;DHT22;7778;48.792;9.260;2023-09-19T05:18:01;17.40;99.90
15357;DHT22;7778;48.792;9.260;2023-09-19T05:20:47;17.30;99.90
15357;DHT22;7778;48.792;9.260;2023-09-19T05:23:33;17.30;99.90
15357;DHT22;7778;48.792;9.260;2023-09-19T05:26:20;17.50;99.90
15357;DHT22;7778;48.792;9.260;2023-09-19T05:29:06;17.60;99.90
15357;DHT22;7778;48.792;9.260;2023-09-19T05:31:52;17.60;99.90
15357;DHT22;7778;48.792;9.260;2023-09-19T05:34:38;17.70;99.90
15357;DHT22;7778;48.792;9.260;2023-09-19T05:37:24;17.60;99.90
15357;DHT22;7778;48.792;9.260;2023-09-19T05:40:10;17.60;99.90
15357;DHT22;7778;48.792;9.260;2023-09-19T05:42:57;17.70;99.90
15357;DHT22;7778;48.792;9.260;2023-09-19T05:45:43;17.60;99.90
15357;DHT22;7778;48.792;9.260;2023-09-19T05:48:29;17.70;99.90
15357;DHT22;7778;48.792;9.260;2023-09-19T05:51:15;17.60;99.90
15357;DHT22;7778;48.792;9.260;2023-09-19T05:54:02;17.20;99.90
15357;DHT22;7778;48.792;9.260;2023-09-19T05:56:48;17.10;99.90
15357;DHT22;7778;48.792;9.260;2023-09-19T05:59:38;17.10;99.90
15357;DHT22;7778;48.792;9.260;2023-09-19T06:02:27;16.80;99.90
15357;DHT22;7778;48.792;9.260;2023-09-19T06:05:14;16.50;99.90
15357;DHT22;7778;48.792;9.260;2023-09-19T06:08:00;16.50;99.90
15357;DHT22;7778;48.792;9.260;2023-09-19T06:10:52;16.60;99.90
15357;DHT22;7778;48.792;9.260;2023-09-19T06:13:37;16.50;99.90
15357;DHT22;7778;48.792;9.260;2023-09-19T06:16:26;16.40;99.90
15357;DHT22;7778;48.792;9.260;2023-09-19T06:19:11;16.30;99.90
15357;DHT22;7778;48.792;9.260;2023-09-19T06:21:57;16.10;99.90
15357;DHT22;7778;48.792;9.260;2023-09-19T06:24:43;16.10;99.90
15357;DHT22;7778;48.792;9.260;2023-09-19T06:27:31;16.20;99.90
15357;DHT22;7778;48.792;9.260;2023-09-19T06:30:16;16.00;99.90
15357;DHT22;7778;48.792;9.260;2023-09-19T06:33:04;16.10;99.90
15357;DHT22;7778;48.792;9.260;2023-09-19T06:35:50;16.20;99.90
15357;DHT22;7778;48.792;9.260;2023-09-19T06:38:43;16.40;99.90
15357;DHT22;7778;48.792;9.260;2023-09-19T06:41:29;16.60;99.90
15357;DHT22;7778;48.792;9.260;2023-09-19T06:44:15;16.50;99.90
15357;DHT22;7778;48.792;9.260;2023-09-19T06:47:00;16.60;99.90
15357;DHT22;7778;48.792;9.260;2023-09-19T06:49:47;16.60;99.90
15357;DHT22;7778;48.792;9.260;2023-09-19T06:52:33;16.80;99.90
15357;DHT22;7778;48.792;9.260;2023-09-19T06:55:20;17.00;99.90
15357;DHT22;7778;48.792;9.260;2023-09-19T06:58:09;17.20;99.90
15357;DHT22;7778;48.792;9.260;2023-09-19T07:00:54;17.50;99.90
15357;DHT22;7778;48.792;9.260;2023-09-19T07:03:41;17.90;99.90
15357;DHT22;7778;48.792;9.260;2023-09-19T07:06:30;18.20;99.90
15357;DHT22;7778;48.792;9.260;2023-09-19T07:09:16;18.40;99.90
15357;DHT22;7778;48.792;9.260;2023-09-19T07:12:04;18.60;99.90
15357;DHT22;7778;48.792;9.260;2023-09-19T07:14:50;18.90;99.90
15357;DHT22;7778;48.792;9.260;2023-09-19T07:17:36;19.10;99.90
15357;DHT22;7778;48.792;9.260;2023-09-19T07:20:22;19.30;99.90
15357;DHT22;7778;48.792;9.260;2023-09-19T07:23:12;19.30;99.90
15357;DHT22;7778;48.792;9.260;2023-09-19T07:25:59;19.10;99.90
15357;DHT22;7778;48.792;9.260;2023-09-19T07:28:44;18.90;99.90
15357;DHT22;7778;48.792;9.260;2023-09-19T07:31:30;18.80;99.90
15357;DHT22;7778;48.792;9.260;2023-09-19T07:34:16;18.80;99.90
15357;DHT22;7778;48.792;9.260;2023-09-19T07:37:02;18.80;99.90
15357;DHT22;7778;48.792;9.260;2023-09-19T07:39:49;18.80;99.90
15357;DHT22;7778;48.792;9.260;2023-09-19T07:42:35;18.90;99.90
15357;DHT22;7778;48.792;9.260;2023-09-19T07:45:23;18.90;99.90
15357;DHT22;7778;48.792;9.260;2023-09-19T07:48:09;19.00;99.90
15357;DHT22;7778;48.792;9.260;2023-09-19T07:51:02;19.40;99.90
15357;DHT22;7778;48.792;9.260;2023-09-19T07:53:48;19.80;99.90
15357;DHT22;7778;48.792;9.260;2023-09-19T07:56:35;19.60;99.90
15357;DHT22;7778;48.792;9.260;2023-09-19T07:59:21;19.60;99.90
15357;DHT22;7778;48.792;9.260;2023-09-19T08:02:07;20.10;99.90
15357;DHT22;7778;48.792;9.260;2023-09-19T08:04:59;20.60;99.90
15357;DHT22;7778;48.792;9.260;2023-09-19T08:07:50;21.20;99.90
15357;DHT22;7778;48.792;9.260;2023-09-19T08:10:36;21.20;99.90
15357;DHT22;7778;48.792;9.260;2023-09-19T08:13:25;21.80;99.90
15357;DHT22;7778;48.792;9.260;2023-09-19T08:16:18;22.10;99.90
15357;DHT22;7778;48.792;9.260;2023-09-19T08:19:06;22.70;99.90
15357;DHT22;7778;48.792;9.260;2023-09-19T08:21:51;23.20;99.90
15357;DHT22;7778;48.792;9.260;2023-09-19T08:24:38;23.90;99.90
15357;DHT22;7778;48.792;9.260;2023-09-19T08:27:23;24.70;99.90
15357;DHT22;7778;48.792;9.260;2023-09-19T08:30:13;24.80;99.90
15357;DHT22;7778;48.792;9.260;2023-09-19T08:32:59;24.80;99.90
15357;DHT22;7778;48.792;9.260;2023-09-19T08:35:45;25.10;99.90
15357;DHT22;7778;48.792;9.260;2023-09-19T08:38:31;25.10;99.90
15357;DHT22;7778;48.792;9.260;2023-09-19T08:41:17;25.00;99.90
15357;DHT22;7778;48.792;9.260;2023-09-19T08:44:03;25.10;99.90
15357;DHT22;7778;48.792;9.260;2023-09-19T08:46:53;25.10;99.90
15357;DHT22;7778;48.792;9.260;2023-09-19T08:49:49;25.10;99.90
15357;DHT22;7778;48.792;9.260;2023-09-19T08:52:42;25.10;99.90
15357;DHT22;7778;48.792;9.260;2023-09-19T08:55:29;24.80;99.90
15357;DHT22;7778;48.792;9.260;2023-09-19T08:58:19;24.20;99.90
15357;DHT22;7778;48.792;9.260;2023-09-19T09:01:06;23.60;99.90
15357;DHT22;7778;48.792;9.260;2023-09-19T09:04:02;23.60;99.90
15357;DHT22;7778;48.792;9.260;2023-09-19T09:06:49;23.50;99.90
15357;DHT22;7778;48.792;9.260;2023-09-19T09:09:37;23.90;99.90
15357;DHT22;7778;48.792;9.260;2023-09-19T09:12:26;23.40;99.90
15357;DHT22;7778;48.792;9.260;2023-09-19T09:15:13;23.20;99.90
15357;DHT22;7778;48.792;9.260;2023-09-19T09:18:00;24.00;99.90
15357;DHT22;7778;48.792;9.260;2023-09-19T09:20:51;24.50;99.90
15357;DHT22;7778;48.792;9.260;2023-09-19T09:23:43;25.00;99.90
15357;DHT22;7778;48.792;9.260;2023-09-19T09:26:43;26.00;99.90
15357;DHT22;7778;48.792;9.260;2023-09-19T09:29:41;26.10;99.90
15357;DHT22;7778;48.792;9.260;2023-09-19T09:32:29;26.10;99.90
15357;DHT22;7778;48.792;9.260;2023-09-19T09:35:18;26.20;99.90
15357;DHT22;7778;48.792;9.260;2023-09-19T09:38:06;25.80;99.90
15357;DHT22;7778;48.792;9.260;2023-09-19T09:40:54;25.90;99.90
15357;DHT22;7778;48.792;9.260;2023-09-19T09:43:45;25.80;99.90
15357;DHT22;7778;48.792;9.260;2023-09-19T09:46:32;25.50;99.90
15357;DHT22;7778;48.792;9.260;2023-09-19T09:49:36;25.90;99.90
15357;DHT22;7778;48.792;9.260;2023-09-19T09:52:23;26.30;99.90
15357;DHT22;7778;48.792;9.260;2023-09-19T09:55:12;26.40;99.90
15357;DHT22;7778;48.792;9.260;2023-09-19T09:58:16;26.70;99.90
15357;DHT22;7778;48.792;9.260;2023-09-19T10:01:04;26.50;99.90
15357;DHT22;7778;48.792;9.260;2023-09-19T10:03:57;26.70;99.90
15357;DHT22;7778;48.792;9.260;2023-09-19T10:06:44;27.20;99.90
15357;DHT22;7778;48.792;9.260;2023-09-19T10:09:45;27.20;99.90
15357;DHT22;7778;48.792;9.260;2023-09-19T10:12:33;27.40;99.90
15357;DHT22;7778;48.792;9.260;2023-09-19T10:15:19;27.00;99.90
15357;DHT22;7778;48.792;9.260;2023-09-19T10:18:05;27.50;99.90
15357;DHT22;7778;48.792;9.260;2023-09-19T10:20:52;27.90;99.90
15357;DHT22;7778;48.792;9.260;2023-09-19T10:23:40;27.70;99.90
15357;DHT22;7778;48.792;9.260;2023-09-19T10:26:30;27.70;99.90
15357;DHT22;7778;48.792;9.260;2023-09-19T10:29:18;27.70;99.90
15357;DHT22;7778;48.792;9.260;2023-09-19T10:32:06;27.20;99.90
15357;DHT22;7778;48.792;9.260;2023-09-19T10:34:53;26.90;99.90
15357;DHT22;7778;48.792;9.260;2023-09-19T10:37:41;26.00;99.90
15357;DHT22;7778;48.792;9.260;2023-09-19T10:40:30;25.60;99.90
15357;DHT22;7778;48.792;9.260;2023-09-19T10:43:20;25.10;99.90
15357;DHT22;7778;48.792;9.260;2023-09-19T10:46:08;25.00;99.90
15357;DHT22;7778;48.792;9.260;2023-09-19T10:48:59;26.30;99.90
15357;DHT22;7778;48.792;9.260;2023-09-19T10:51:49;26.60;99.90
15357;DHT22;7778;48.792;9.260;2023-09-19T10:54:41;25.60;99.90
15357;DHT22;7778;48.792;9.260;2023-09-19T10:57:35;25.70;99.90
15357;DHT22;7778;48.792;9.260;2023-09-19T11:00:21;27.00;99.90
15357;DHT22;7778;48.792;9.260;2023-09-19T11:03:21;27.80;99.90
15357;DHT22;7778;48.792;9.260;2023-09-19T11:06:16;28.10;99.90
15357;DHT22;7778;48.792;9.260;2023-09-19T11:09:04;27.60;99.90
15357;DHT22;7778;48.792;9.260;2023-09-19T11:12:06;27.20;99.90
15357;DHT22;7778;48.792;9.260;2023-09-19T11:14:53;27.20;99.90
15357;DHT22;7778;48.792;9.260;2023-09-19T11:17:39;27.10;99.90
15357;DHT22;7778;48.792;9.260;2023-09-19T11:20:27;26.00;99.90
15357;DHT22;7778;48.792;9.260;2023-09-19T11:23:36;25.00;99.90
15357;DHT22;7778;48.792;9.260;2023-09-19T11:26:40;25.10;99.90
15357;DHT22;7778;48.792;9.260;2023-09-19T11:29:31;25.10;99.90
15357;DHT22;7778;48.792;9.260;2023-09-19T11:32:17;25.20;99.90
15357;DHT22;7778;48.792;9.260;2023-09-19T11:36:01;25.00;99.90
15357;DHT22;7778;48.792;9.260;2023-09-19T11:39:00;24.70;99.90
15357;DHT22;7778;48.792;9.260;2023-09-19T11:41:58;24.90;99.90
15357;DHT22;7778;48.792;9.260;2023-09-19T11:44:44;24.20;99.90
15357;DHT22;7778;48.792;9.260;2023-09-19T11:47:30;23.60;99.90
15357;DHT22;7778;48.792;9.260;2023-09-19T11:50:18;23.40;99.90
15357;DHT22;7778;48.792;9.260;2023-09-19T11:53:06;23.50;99.90
15357;DHT22;7778;48.792;9.260;2023-09-19T11:55:55;23.60;99.90
15357;DHT22;7778;48.792;9.260;2023-09-19T11:58:41;23.50;99.90
15357;DHT22;7778;48.792;9.260;2023-09-19T12:01:29;23.90;99.90
15357;DHT22;7778;48.792;9.260;2023-09-19T12:04:18;24.20;99.90
15357;DHT22;7778;48.792;9.260;2023-09-19T12:07:07;24.20;99.90
15357;DHT22;7778;48.792;9.260;2023-09-19T12:10:05;24.10;99.90
15357;DHT22;7778;48.792;9.260;2023-09-19T12:12:54;24.30;99.90
15357;DHT22;7778;48.792;9.260;2023-09-19T12:15:41;24.20;99.90
15357;DHT22;7778;48.792;9.260;2023-09-19T12:18:29;24.00;99.90
15357;DHT22;7778;48.792;9.260;2023-09-19T12:21:22;24.20;99.90
15357;DHT22;7778;48.792;9.260;2023-09-19T12:24:13;24.40;99.90
15357;DHT22;7778;48.792;9.260;2023-09-19T12:27:06;24.70;99.90
15357;DHT22;7778;48.792;9.260;2023-09-19T12:29:53;24.60;99.90
15357;DHT22;7778;48.792;9.260;2023-09-19T12:32:40;24.20;99.90
15357;DHT22;7778;48.792;9.260;2023-09-19T12:35:29;23.90;99.90
15357;DHT22;7778;48.792;9.260;2023-09-19T12:38:25;23.90;99.90
15357;DHT22;7778;48.792;9.260;2023-09-19T12:41:13;23.70;99.90
15357;DHT22;7778;48.792;9.260;2023-09-19T12:44:00;23.90;99.90
15357;DHT22;7778;48.792;9.260;2023-09-19T12:46:49;23.80;99.90
15357;DHT22;7778;48.792;9.260;2023-09-19T12:49:35;23.90;99.90
15357;DHT22;7778;48.792;9.260;2023-09-19T12:52:20;24.10;99.90
15357;DHT22;7778;48.792;9.260;2023-09-19T12:55:20;24.10;99.90
15357;DHT22;7778;48.792;9.260;2023-09-19T12:58:12;23.90;99.90
15357;DHT22;7778;48.792;9.260;2023-09-19T13:01:01;23.90;99.90
15357;DHT22;7778;48.792;9.260;2023-09-19T13:04:13;23.80;99.90
15357;DHT22;7778;48.792;9.260;2023-09-19T13:07:02;24.10;99.90
15357;DHT22;7778;48.792;9.260;2023-09-19T13:10:03;24.30;99.90
15357;DHT22;7778;48.792;9.260;2023-09-19T13:12:51;24.50;99.90
15357;DHT22;7778;48.792;9.260;2023-09-19T13:15:51;24.60;99.90
15357;DHT22;7778;48.792;9.260;2023-09-19T13:18:46;24.70;99.90
15357;DHT22;7778;48.792;9.260;2023-09-19T13:21:35;24.50;99.90
15357;DHT22;7778;48.792;9.260;2023-09-19T13:24:26;24.40;99.90
15357;DHT22;7778;48.792;9.260;2023-09-19T13:27:14;24.30;99.90
15357;DHT22;7778;48.792;9.260;2023-09-19T13:30:00;24.30;99.90
15357;DHT22;7778;48.792;9.260;2023-09-19T13:32:46;24.40;99.90
15357;DHT22;7778;48.792;9.260;2023-09-19T13:35:33;24.30;99.90
15357;DHT22;7778;48.792;9.260;2023-09-19T13:38:19;24.30;99.90
15357;DHT22;7778;48.792;9.260;2023-09-19T13:41:06;24.10;99.90
15357;DHT22;7778;48.792;9.260;2023-09-19T13:43:52;24.00;99.90
15357;DHT22;7778;48.792;9.260;2023-09-19T13:46:37;24.00;99.90
15357;DHT22;7778;48.792;9.260;2023-09-19T13:49:24;23.90;99.90
15357;DHT22;7778;48.792;9.260;2023-09-19T13:52:11;23.40;99.90
15357;DHT22;7778;48.792;9.260;2023-09-19T13:54:57;23.20;99.90
15357;DHT22;7778;48.792;9.260;2023-09-19T13:57:43;23.30;99.90
15357;DHT22;7778;48.792;9.260;2023-09-19T14:00:29;23.40;99.90
15357;DHT22;7778;48.792;9.260;2023-09-19T14:03:14;23.60;99.90
15357;DHT22;7778;48.792;9.260;2023-09-19T14:06:01;23.70;99.90
15357;DHT22;7778;48.792;9.260;2023-09-19T14:08:49;23.90;99.90
15357;DHT22;7778;48.792;9.260;2023-09-19T14:11:35;23.90;99.90
15357;DHT22;7778;48.792;9.260;2023-09-19T14:14:22;23.80;99.90
15357;DHT22;7778;48.792;9.260;2023-09-19T14:17:08;23.80;99.90
15357;DHT22;7778;48.792;9.260;2023-09-19T14:19:53;23.70;99.90
15357;DHT22;7778;48.792;9.260;2023-09-19T14:22:39;23.60;99.90
15357;DHT22;7778;48.792;9.260;2023-09-19T14:25:27;23.40;99.90
15357;DHT22;7778;48.792;9.260;2023-09-19T14:28:15;23.20;99.90
15357;DHT22;7778;48.792;9.260;2023-09-19T14:31:09;23.10;99.90
15357;DHT22;7778;48.792;9.260;2023-09-19T14:33:57;22.90;99.90
15357;DHT22;7778;48.792;9.260;2023-09-19T14:36:45;22.80;99.90
15357;DHT22;7778;48.792;9.260;2023-09-19T14:39:33;22.80;99.90
15357;DHT22;7778;48.792;9.260;2023-09-19T14:42:22;22.70;99.90
15357;DHT22;7778;48.792;9.260;2023-09-19T14:45:11;22.70;99.90
15357;DHT22;7778;48.792;9.260;2023-09-19T14:48:01;22.60;99.90
15357;DHT22;7778;48.792;9.260;2023-09-19T14:50:50;22.70;99.90
15357;DHT22;7778;48.792;9.260;2023-09-19T14:53:37;22.80;99.90
15357;DHT22;7778;48.792;9.260;2023-09-19T14:56:25;22.80;99.90
15357;DHT22;7778;48.792;9.260;2023-09-19T14:59:45;22.80;99.90
15357;DHT22;7778;48.792;9.260;2023-09-19T15:02:32;22.90;99.90
15357;DHT22;7778;48.792;9.260;2023-09-19T15:05:18;23.00;99.90
15357;DHT22;7778;48.792;9.260;2023-09-19T15:08:04;23.00;99.90
15357;DHT22;7778;48.792;9.260;2023-09-19T15:10:51;23.00;99.90
15357;DHT22;7778;48.792;9.260;2023-09-19T15:13:37;23.00;99.90
15357;DHT22;7778;48.792;9.260;2023-09-19T15:16:24;22.90;99.90
15357;DHT22;7778;48.792;9.260;2023-09-19T15:19:10;22.70;99.90
15357;DHT22;7778;48.792;9.260;2023-09-19T15:21:56;22.50;99.90
15357;DHT22;7778;48.792;9.260;2023-09-19T15:24:42;22.30;99.90
15357;DHT22;7778;48.792;9.260;2023-09-19T15:27:27;22.40;99.90
15357;DHT22;7778;48.792;9.260;2023-09-19T15:30:14;22.50;99.90
15357;DHT22;7778;48.792;9.260;2023-09-19T15:33:02;22.50;99.90
15357;DHT22;7778;48.792;9.260;2023-09-19T15:35:48;22.50;99.90
15357;DHT22;7778;48.792;9.260;2023-09-19T15:38:57;22.40;99.90
15357;DHT22;7778;48.792;9.260;2023-09-19T15:41:45;22.40;99.90
15357;DHT22;7778;48.792;9.260;2023-09-19T15:44:32;22.40;99.90
15357;DHT22;7778;48.792;9.260;2023-09-19T15:47:19;22.40;99.90
15357;DHT22;7778;48.792;9.260;2023-09-19T15:50:07;22.30;99.90
15357;DHT22;7778;48.792;9.260;2023-09-19T15:52:54;22.20;99.90
15357;DHT22;7778;48.792;9.260;2023-09-19T15:55:40;22.30;99.90
15357;DHT22;7778;48.792;9.260;2023-09-19T15:58:26;22.20;99.90
15357;DHT22;7778;48.792;9.260;2023-09-19T16:01:12;22.00;99.90
15357;DHT22;7778;48.792;9.260;2023-09-19T16:03:58;22.00;99.90
15357;DHT22;7778;48.792;9.260;2023-09-19T16:06:45;22.00;99.90
15357;DHT22;7778;48.792;9.260;2023-09-19T16:09:31;22.00;99.90
15357;DHT22;7778;48.792;9.260;2023-09-19T16:12:16;22.10;99.90
15357;DHT22;7778;48.792;9.260;2023-09-19T16:15:02;22.00;99.90
15357;DHT22;7778;48.792;9.260;2023-09-19T16:17:48;22.00;99.90
15357;DHT22;7778;48.792;9.260;2023-09-19T16:20:33;22.10;99.90
15357;DHT22;7778;48.792;9.260;2023-09-19T16:23:22;22.00;99.90
15357;DHT22;7778;48.792;9.260;2023-09-19T16:26:08;22.00;99.90
15357;DHT22;7778;48.792;9.260;2023-09-19T16:28:55;21.90;99.90
15357;DHT22;7778;48.792;9.260;2023-09-19T16:31:44;21.90;99.90
15357;DHT22;7778;48.792;9.260;2023-09-19T16:34:30;21.80;99.90
15357;DHT22;7778;48.792;9.260;2023-09-19T16:37:15;21.70;99.90
15357;DHT22;7778;48.792;9.260;2023-09-19T16:40:03;21.70;99.90
15357;DHT22;7778;48.792;9.260;2023-09-19T16:42:50;21.70;99.90
15357;DHT22;7778;48.792;9.260;2023-09-19T16:45:36;21.80;99.90
15357;DHT22;7778;48.792;9.260;2023-09-19T16:48:25;21.70;99.90
15357;DHT22;7778;48.792;9.260;2023-09-19T16:51:14;21.70;99.90
15357;DHT22;7778;48.792;9.260;2023-09-19T16:54:01;21.70;99.90
15357;DHT22;7778;48.792;9.260;2023-09-19T16:56:48;21.80;99.90
15357;DHT22;7778;48.792;9.260;2023-09-19T16:59:33;21.80;99.90
15357;DHT22;7778;48.792;9.260;2023-09-19T17:02:19;21.60;99.90
15357;DHT22;7778;48.792;9.260;2023-09-19T17:05:05;21.70;99.90
15357;DHT22;7778;48.792;9.260;2023-09-19T17:07:52;21.70;99.90
15357;DHT22;7778;48.792;9.260;2023-09-19T17:10:38;21.70;99.90
15357;DHT22;7778;48.792;9.260;2023-09-19T17:13:29;21.50;99.90
15357;DHT22;7778;48.792;9.260;2023-09-19T17:16:17;21.40;99.90
15357;DHT22;7778;48.792;9.260;2023-09-19T17:19:35;21.30;99.90
15357;DHT22;7778;48.792;9.260;2023-09-19T17:22:21;21.20;99.90
15357;DHT22;7778;48.792;9.260;2023-09-19T17:25:08;21.10;99.90
15357;DHT22;7778;48.792;9.260;2023-09-19T17:27:54;21.10;99.90
15357;DHT22;7778;48.792;9.260;2023-09-19T17:30:41;20.90;99.90
15357;DHT22;7778;48.792;9.260;2023-09-19T17:33:27;20.90;99.90
15357;DHT22;7778;48.792;9.260;2023-09-19T17:36:14;20.80;99.90
15357;DHT22;7778;48.792;9.260;2023-09-19T17:39:02;20.70;99.90
15357;DHT22;7778;48.792;9.260;2023-09-19T17:41:50;20.50;99.90
15357;DHT22;7778;48.792;9.260;2023-09-19T17:44:36;20.30;99.90
15357;DHT22;7778;48.792;9.260;2023-09-19T17:47:23;20.10;99.90
15357;DHT22;7778;48.792;9.260;2023-09-19T17:50:09;20.00;99.90
15357;DHT22;7778;48.792;9.260;2023-09-19T17:52:56;20.10;99.90
15357;DHT22;7778;48.792;9.260;2023-09-19T17:55:43;20.00;99.90
15357;DHT22;7778;48.792;9.260;2023-09-19T17:58:30;19.80;99.90
15357;DHT22;7778;48.792;9.260;2023-09-19T18:01:18;19.70;99.90